createdAt,value
2023-03-29T00:01:01.762Z,99060.34
2023-03-29T00:02:03.751Z,99060.38
2023-03-29T00:03:06.745Z,99055.38
2023-03-29T00:04:10.211Z,99061.31
2023-03-29T00:05:13.231Z,99060.47
2023-03-29T00:06:22.386Z,99058.78
2023-03-29T00:07:26.916Z,99058.78
2023-03-29T00:08:29.268Z,99066.50
2023-03-29T00:09:33.125Z,99059.75
2023-03-29T00:10:36.948Z,99059.81
2023-03-29T00:11:39.739Z,99059.88
2023-03-29T00:12:41.745Z,99059.09
2023-03-29T00:13:44.734Z,99065.94
2023-03-29T00:14:46.593Z,99053.25
2023-03-29T00:15:49.379Z,99053.28
2023-03-29T00:16:51.682Z,99062.59
2023-03-29T00:17:54.670Z,99058.41
2023-03-29T00:18:56.846Z,99054.19
2023-03-29T00:19:59.929Z,99060.16
2023-03-29T00:21:02.181Z,99052.56
2023-03-29T00:22:05.992Z,99054.28
2023-03-29T00:23:08.837Z,99050.06
2023-03-29T00:24:10.755Z,99058.53
2023-03-29T00:25:14.163Z,99044.97
2023-03-29T00:26:17.387Z,99043.28
2023-03-29T00:27:20.603Z,99050.06
2023-03-29T00:28:22.920Z,99048.38
2023-03-29T00:29:25.752Z,99048.38
2023-03-29T00:30:27.653Z,99051.78
2023-03-29T00:31:30.442Z,99050.97
2023-03-29T00:32:33.141Z,99051.81
2023-03-29T00:33:36.793Z,99049.34
2023-03-29T00:34:38.855Z,99046.78
2023-03-29T00:35:43.904Z,99056.13
2023-03-29T00:36:45.682Z,99051.91
2023-03-29T00:37:50.784Z,99047.69
2023-03-29T00:38:53.004Z,99055.34
2023-03-29T00:39:56.004Z,99051.91
2023-03-29T00:40:58.268Z,99055.28
2023-03-29T00:42:03.275Z,99051.06
2023-03-29T00:43:06.216Z,99047.66
2023-03-29T00:44:42.060Z,99045.13
2023-03-29T00:45:43.957Z,99051.06
2023-03-29T00:46:47.007Z,99052.75
2023-03-29T00:47:50.692Z,99051.00
2023-03-29T00:48:56.623Z,99053.50
2023-03-29T00:50:01.646Z,99045.00
2023-03-29T00:51:09.898Z,99050.06
2023-03-29T00:52:13.246Z,99050.88
2023-03-29T00:53:21.385Z,99049.16
2023-03-29T00:54:23.253Z,99047.47
2023-03-29T00:55:28.865Z,99047.47
2023-03-29T00:56:35.214Z,99049.16
2023-03-29T00:57:40.420Z,99045.75
2023-03-29T00:58:44.701Z,99051.72
2023-03-29T00:59:48.206Z,99058.53
2023-03-29T01:00:53.597Z,99054.38
2023-03-29T01:01:59.674Z,99047.63
2023-03-29T01:03:07.075Z,99049.38
2023-03-29T01:04:18.074Z,99047.69
2023-03-29T01:05:24.374Z,99045.19
2023-03-29T01:06:27.259Z,99040.19
2023-03-29T01:07:35.205Z,99040.22
2023-03-29T01:08:41.657Z,99038.56
2023-03-29T01:09:48.627Z,99044.50
2023-03-29T01:10:54.994Z,99043.66
2023-03-29T01:12:02.600Z,99042.00
2023-03-29T01:13:09.534Z,99040.38
2023-03-29T01:14:16.607Z,99039.56
2023-03-29T01:15:21.061Z,99036.22
2023-03-29T01:16:25.713Z,99043.88
2023-03-29T01:17:28.016Z,99038.81
2023-03-29T01:18:31.529Z,99043.06
2023-03-29T01:19:40.684Z,99044.78
2023-03-29T01:21:04.838Z,99049.88
2023-03-29T01:22:13.536Z,99044.81
2023-03-29T01:23:29.498Z,99034.72
2023-03-29T01:24:42.901Z,99038.13
2023-03-29T01:25:49.258Z,99037.31
2023-03-29T01:26:55.363Z,99033.97
2023-03-29T01:28:02.737Z,99028.09
2023-03-29T01:29:07.978Z,99034.88
2023-03-29T01:30:14.445Z,99028.97
2023-03-29T01:31:19.519Z,99033.22
2023-03-29T01:32:25.102Z,99040.81
2023-03-29T01:33:31.556Z,99026.44
2023-03-29T01:34:37.532Z,99030.66
2023-03-29T01:35:43.722Z,99025.59
2023-03-29T01:36:50.510Z,99024.75
2023-03-29T01:37:56.991Z,99026.44
2023-03-29T01:39:04.933Z,99022.25
2023-03-29T01:40:07.755Z,99024.81
2023-03-29T01:41:12.064Z,99029.91
2023-03-29T01:42:27.024Z,99021.47
2023-03-29T01:43:36.186Z,99022.28
2023-03-29T01:44:42.690Z,99023.16
2023-03-29T01:45:48.436Z,99020.59
2023-03-29T01:46:53.663Z,99025.63
2023-03-29T01:48:01.095Z,99026.50
2023-03-29T01:49:04.905Z,99025.63
2023-03-29T01:50:13.978Z,99020.56
2023-03-29T01:51:19.095Z,99024.78
2023-03-29T01:52:25.958Z,99023.97
2023-03-29T01:53:30.880Z,99024.81
2023-03-29T01:54:36.221Z,99025.69
2023-03-29T01:55:40.708Z,99025.72
2023-03-29T01:56:44.921Z,99023.19
2023-03-29T01:57:47.477Z,99024.88
2023-03-29T01:58:59.539Z,99024.06
2023-03-29T02:00:07.215Z,99021.53
2023-03-29T02:01:18.845Z,99019.88
2023-03-29T02:02:21.646Z,99026.63
2023-03-29T02:03:27.185Z,99022.44
2023-03-29T02:04:32.519Z,99027.50
2023-03-29T02:05:36.770Z,99019.88
2023-03-29T02:06:40.674Z,99015.66
2023-03-29T02:07:43.601Z,99019.03
2023-03-29T02:08:47.273Z,99016.50
2023-03-29T02:09:49.693Z,99016.50
2023-03-29T02:10:52.818Z,99020.75
2023-03-29T02:11:57.272Z,99017.38
2023-03-29T02:13:00.128Z,99023.31
2023-03-29T02:14:03.592Z,99021.63
2023-03-29T02:15:11.707Z,99019.97
2023-03-29T02:16:14.386Z,99021.63
2023-03-29T02:17:19.641Z,99014.06
2023-03-29T02:18:21.785Z,99015.75
2023-03-29T02:19:26.181Z,99018.31
2023-03-29T02:20:30.701Z,99016.63
2023-03-29T02:21:37.232Z,99012.41
2023-03-29T02:22:43.008Z,99014.97
2023-03-29T02:23:48.882Z,99010.75
2023-03-29T02:24:54.732Z,99014.13
2023-03-29T02:25:58.734Z,99006.53
2023-03-29T02:27:01.318Z,99013.28
2023-03-29T02:28:06.952Z,99012.44
2023-03-29T02:29:10.496Z,99027.66
2023-03-29T02:30:14.555Z,99022.59
2023-03-29T02:31:24.107Z,99028.53
2023-03-29T02:32:32.727Z,99011.63
2023-03-29T02:33:39.153Z,99017.53
2023-03-29T02:34:49.326Z,99015.84
2023-03-29T02:35:54.646Z,99021.75
2023-03-29T02:37:00.203Z,99012.47
2023-03-29T02:38:03.966Z,99015.84
2023-03-29T02:39:08.112Z,99014.19
2023-03-29T02:40:12.890Z,99020.09
2023-03-29T02:41:18.092Z,99021.78
2023-03-29T02:42:20.855Z,99015.03
2023-03-29T02:43:26.195Z,99022.66
2023-03-29T02:44:31.794Z,99023.50
2023-03-29T02:45:35.069Z,99031.09
2023-03-29T02:46:38.588Z,99020.97
2023-03-29T02:47:44.153Z,99026.06
2023-03-29T02:48:47.917Z,99023.53
2023-03-29T02:49:49.856Z,99026.88
2023-03-29T02:50:57.438Z,99026.91
2023-03-29T02:52:04.671Z,99035.34
2023-03-29T02:53:11.481Z,99033.66
2023-03-29T02:54:17.908Z,99031.16
2023-03-29T02:55:23.424Z,99032.84
2023-03-29T02:56:25.400Z,99036.22
2023-03-29T02:57:28.695Z,99030.31
2023-03-29T02:58:31.636Z,99032.00
2023-03-29T02:59:35.830Z,99030.31
2023-03-29T03:00:43.075Z,99028.69
2023-03-29T03:01:46.166Z,99029.50
2023-03-29T03:02:51.813Z,99032.06
2023-03-29T03:03:55.113Z,99035.44
2023-03-29T03:04:57.569Z,99032.06
2023-03-29T03:06:01.544Z,99036.28
2023-03-29T03:07:05.149Z,99028.69
2023-03-29T03:08:08.786Z,99029.53
2023-03-29T03:09:10.608Z,99027.81
2023-03-29T03:10:19.120Z,99036.28
2023-03-29T03:11:21.242Z,99032.94
2023-03-29T03:12:24.295Z,99037.16
2023-03-29T03:13:26.286Z,99037.97
2023-03-29T03:14:29.475Z,99034.59
2023-03-29T03:15:36.349Z,99032.91
2023-03-29T03:16:38.632Z,99031.22
2023-03-29T03:17:41.674Z,99032.06
2023-03-29T03:18:45.963Z,99033.75
2023-03-29T03:19:49.522Z,99036.31
2023-03-29T03:20:57.966Z,99035.47
2023-03-29T03:22:00.819Z,99037.16
2023-03-29T03:23:04.309Z,99036.28
2023-03-29T03:24:08.311Z,99035.47
2023-03-29T03:25:11.272Z,99033.78
2023-03-29T03:26:15.294Z,99036.31
2023-03-29T03:27:18.739Z,99030.41
2023-03-29T03:28:24.155Z,99034.59
2023-03-29T03:29:26.450Z,99035.44
2023-03-29T03:30:56.201Z,99038.00
2023-03-29T03:32:18.518Z,99038.00
2023-03-29T03:33:39.581Z,99039.72
2023-03-29T03:35:05.748Z,99033.81
2023-03-29T03:36:08.329Z,99042.22
2023-03-29T03:37:12.995Z,99032.13
2023-03-29T03:38:16.626Z,99027.03
2023-03-29T03:39:20.621Z,99033.81
2023-03-29T03:40:25.562Z,99025.38
2023-03-29T03:41:28.487Z,99028.72
2023-03-29T03:42:31.459Z,99023.69
2023-03-29T03:43:34.289Z,99028.75
2023-03-29T03:44:37.941Z,99035.50
2023-03-29T03:45:59.087Z,99040.56
2023-03-29T03:47:01.125Z,99034.66
2023-03-29T03:48:05.778Z,99042.25
2023-03-29T03:49:19.199Z,99039.72
2023-03-29T03:50:23.036Z,99044.78
2023-03-29T03:51:26.467Z,99042.25
2023-03-29T03:52:29.316Z,99042.25
2023-03-29T03:53:31.196Z,99040.56
2023-03-29T03:54:50.196Z,99038.88
2023-03-29T03:56:16.269Z,99045.63
2023-03-29T03:57:45.516Z,99045.63
2023-03-29T03:58:50.135Z,99038.88
2023-03-29T03:59:55.227Z,99036.34
2023-03-29T04:01:05.051Z,99038.88
2023-03-29T04:02:22.043Z,99044.78
2023-03-29T04:03:24.534Z,99039.75
2023-03-29T04:04:27.542Z,99036.38
2023-03-29T04:05:39.230Z,99033.00
2023-03-29T04:06:43.773Z,99042.28
2023-03-29T04:08:10.187Z,99031.31
2023-03-29T04:09:42.591Z,99036.41
2023-03-29T04:11:11.522Z,99036.41
2023-03-29T04:12:16.528Z,99033.84
2023-03-29T04:13:20.190Z,99030.47
2023-03-29T04:14:58.060Z,99037.22
2023-03-29T04:16:02.188Z,99035.53
2023-03-29T04:17:07.035Z,99032.13
2023-03-29T04:18:22.077Z,99036.38
2023-03-29T04:19:28.419Z,99031.31
2023-03-29T04:20:34.758Z,99039.75
2023-03-29T04:21:37.229Z,99040.56
2023-03-29T04:22:41.156Z,99035.53
2023-03-29T04:23:43.164Z,99041.41
2023-03-29T04:24:46.170Z,99035.53
2023-03-29T04:26:15.696Z,99033.84
2023-03-29T04:27:22.376Z,99039.75
2023-03-29T04:28:25.467Z,99036.38
2023-03-29T04:29:39.737Z,99034.66
2023-03-29T04:30:53.684Z,99034.66
2023-03-29T04:32:13.276Z,99033.84
2023-03-29T04:33:29.268Z,99032.16
2023-03-29T04:34:34.758Z,99027.94
2023-03-29T04:35:39.903Z,99028.75
2023-03-29T04:36:46.683Z,99036.38
2023-03-29T04:37:54.944Z,99026.25
2023-03-29T04:39:01.293Z,99029.63
2023-03-29T04:40:04.755Z,99027.91
2023-03-29T04:41:20.052Z,99027.91
2023-03-29T04:42:24.434Z,99027.91
2023-03-29T04:43:27.424Z,99031.28
2023-03-29T04:44:38.002Z,99026.22
2023-03-29T04:45:43.196Z,99038.03
2023-03-29T04:46:50.740Z,99036.34
2023-03-29T04:48:22.513Z,99036.34
2023-03-29T04:49:26.128Z,99036.31
2023-03-29T04:50:30.829Z,99046.44
2023-03-29T04:51:33.192Z,99037.13
2023-03-29T04:52:36.300Z,99038.78
2023-03-29T04:53:41.108Z,99036.25
2023-03-29T04:54:48.691Z,99034.56
2023-03-29T04:56:04.073Z,99026.97
2023-03-29T04:57:26.950Z,99037.84
2023-03-29T04:58:48.417Z,99034.44
2023-03-29T04:59:54.813Z,99031.03
2023-03-29T05:01:16.722Z,99030.16
2023-03-29T05:02:25.327Z,99031.81
2023-03-29T05:03:29.687Z,99030.13
2023-03-29T05:04:36.495Z,99029.19
2023-03-29T05:05:45.577Z,99033.38
2023-03-29T05:06:47.467Z,99034.19
2023-03-29T05:07:50.756Z,99042.63
2023-03-29T05:08:57.952Z,99029.91
2023-03-29T05:10:19.739Z,99025.56
2023-03-29T05:11:25.201Z,99030.56
2023-03-29T05:12:28.505Z,99038.09
2023-03-29T05:13:31.884Z,99023.69
2023-03-29T05:14:34.815Z,99034.63
2023-03-29T05:15:36.717Z,99031.19
2023-03-29T05:16:44.319Z,99030.25
2023-03-29T05:17:47.723Z,99026.78
2023-03-29T05:18:54.774Z,99028.38
2023-03-29T05:19:57.104Z,99022.38
2023-03-29T05:21:02.237Z,99026.47
2023-03-29T05:22:04.433Z,99026.28
2023-03-29T05:23:09.644Z,99030.19
2023-03-29T05:24:42.102Z,99023.03
2023-03-29T05:25:51.521Z,99024.50
2023-03-29T05:26:54.537Z,99018.34
2023-03-29T05:27:56.392Z,99020.63
2023-03-29T05:28:59.344Z,99021.19
2023-03-29T05:30:01.748Z,99019.19
2023-03-29T05:31:10.206Z,99019.84
2023-03-29T05:32:14.998Z,99017.94
2023-03-29T05:33:18.504Z,99022.84
2023-03-29T05:34:21.762Z,99016.66
2023-03-29T05:35:29.206Z,99017.03
2023-03-29T05:36:32.163Z,99023.31
2023-03-29T05:37:35.327Z,99020.25
2023-03-29T05:38:39.735Z,99020.47
2023-03-29T05:39:43.790Z,99017.19
2023-03-29T05:40:46.763Z,99018.97
2023-03-29T05:42:12.328Z,99017.16
2023-03-29T05:43:23.737Z,99016.41
2023-03-29T05:44:27.932Z,99020.13
2023-03-29T05:45:37.014Z,99020.38
2023-03-29T05:46:39.881Z,99018.16
2023-03-29T05:47:47.976Z,99013.25
2023-03-29T05:48:51.014Z,99014.25
2023-03-29T05:49:54.928Z,99004.94
2023-03-29T05:51:00.140Z,99016.13
2023-03-29T05:52:02.448Z,99018.25
2023-03-29T05:53:06.803Z,99017.88
2023-03-29T05:54:08.730Z,99018.34
2023-03-29T05:55:12.008Z,99015.38
2023-03-29T05:56:16.626Z,99020.09
2023-03-29T05:57:20.359Z,99014.41
2023-03-29T05:58:26.359Z,99017.28
2023-03-29T05:59:29.644Z,99022.81
2023-03-29T06:00:37.123Z,99026.66
2023-03-29T06:01:55.999Z,99024.16
2023-03-29T06:03:06.486Z,99015.66
2023-03-29T06:04:19.423Z,99013.00
2023-03-29T06:05:34.805Z,99010.50
2023-03-29T06:06:38.758Z,99016.03
2023-03-29T06:07:41.301Z,99006.97
2023-03-29T06:09:10.521Z,99017.47
2023-03-29T06:10:20.236Z,99015.19
2023-03-29T06:11:27.791Z,99014.44
2023-03-29T06:12:48.073Z,99017.44
2023-03-29T06:13:51.782Z,99013.75
2023-03-29T06:14:55.013Z,99021.00
2023-03-29T06:16:19.887Z,99020.44
2023-03-29T06:17:23.722Z,99022.53
2023-03-29T06:18:26.766Z,99018.72
2023-03-29T06:19:29.613Z,99015.22
2023-03-29T06:20:33.488Z,99019.31
2023-03-29T06:21:42.399Z,99019.31
2023-03-29T06:22:47.942Z,99018.72
2023-03-29T06:23:51.107Z,99023.69
2023-03-29T06:24:53.483Z,99023.56
2023-03-29T06:26:00.742Z,99020.59
2023-03-29T06:27:03.763Z,99021.69
2023-03-29T06:28:07.396Z,99029.34
2023-03-29T06:29:11.319Z,99032.91
2023-03-29T06:30:16.292Z,99032.06
2023-03-29T06:31:23.602Z,99029.28
2023-03-29T06:32:27.932Z,99029.91
2023-03-29T06:33:37.119Z,99028.66
2023-03-29T06:35:13.733Z,99028.44
2023-03-29T06:36:23.884Z,99026.97
2023-03-29T06:37:26.820Z,99026.34
2023-03-29T06:38:39.794Z,99028.09
2023-03-29T06:40:10.069Z,99018.84
2023-03-29T06:41:21.773Z,99035.00
2023-03-29T06:42:45.953Z,99026.06
2023-03-29T06:44:20.788Z,99033.72
2023-03-29T06:45:36.112Z,99029.34
2023-03-29T06:46:44.828Z,99033.38
2023-03-29T06:47:47.703Z,99034.81
2023-03-29T06:48:51.545Z,99034.41
2023-03-29T06:49:54.766Z,99032.44
2023-03-29T06:51:08.314Z,99025.72
2023-03-29T06:52:12.210Z,99024.03
2023-03-29T06:53:15.918Z,99023.53
2023-03-29T06:54:21.558Z,99027.22
2023-03-29T06:55:35.972Z,99027.59
2023-03-29T06:56:57.792Z,99029.72
2023-03-29T06:58:02.852Z,99026.75
2023-03-29T06:59:06.293Z,99027.50
2023-03-29T07:00:19.319Z,99023.19
2023-03-29T07:01:40.636Z,99023.25
2023-03-29T07:02:50.990Z,99024.75
2023-03-29T07:03:59.612Z,99025.94
2023-03-29T07:05:11.958Z,99025.63
2023-03-29T07:06:20.421Z,99019.91
2023-03-29T07:07:27.580Z,99016.16
2023-03-29T07:08:44.973Z,99014.75
2023-03-29T07:10:07.421Z,99020.13
2023-03-29T07:11:29.222Z,99017.94
2023-03-29T07:12:33.100Z,99022.63
2023-03-29T07:13:37.397Z,99018.81
2023-03-29T07:14:45.106Z,99020.97
2023-03-29T07:15:48.206Z,99022.13
2023-03-29T07:16:51.925Z,99024.59
2023-03-29T07:17:59.787Z,99020.41
2023-03-29T07:19:03.794Z,99024.56
2023-03-29T07:20:27.097Z,99023.72
2023-03-29T07:21:40.154Z,99024.25
2023-03-29T07:22:45.101Z,99020.84
2023-03-29T07:23:47.864Z,99021.97
2023-03-29T07:24:49.854Z,99024.88
2023-03-29T07:25:52.788Z,99014.97
2023-03-29T07:27:03.321Z,99013.63
2023-03-29T07:28:07.984Z,99014.63
2023-03-29T07:29:11.744Z,99020.31
2023-03-29T07:30:16.915Z,99020.59
2023-03-29T07:31:19.925Z,99016.50
2023-03-29T07:32:30.602Z,99022.50
2023-03-29T07:33:56.348Z,99019.19
2023-03-29T07:35:00.652Z,99015.84
2023-03-29T07:36:10.040Z,99021.94
2023-03-29T07:37:12.007Z,99023.53
2023-03-29T07:38:21.803Z,99014.63
2023-03-29T07:39:31.513Z,99021.69
2023-03-29T07:41:08.880Z,99019.81
2023-03-29T07:42:20.873Z,99017.44
2023-03-29T07:43:24.385Z,99016.69
2023-03-29T07:44:29.499Z,99015.16
2023-03-29T07:45:33.447Z,99011.72
2023-03-29T07:46:40.116Z,99016.41
2023-03-29T07:47:43.308Z,99020.50
2023-03-29T07:48:46.276Z,99014.59
2023-03-29T07:49:49.625Z,99015.50
2023-03-29T07:50:52.627Z,99009.41
2023-03-29T07:52:01.666Z,99012.59
2023-03-29T07:53:04.539Z,99010.38
2023-03-29T07:54:14.745Z,99007.94
2023-03-29T07:55:30.961Z,99007.75
2023-03-29T07:56:51.105Z,99009.25
2023-03-29T07:58:04.236Z,99012.56
2023-03-29T07:59:09.267Z,99012.94
2023-03-29T08:00:16.150Z,99006.03
2023-03-29T08:01:29.921Z,99013.94
2023-03-29T08:03:03.761Z,99005.59
2023-03-29T08:04:08.736Z,99010.16
2023-03-29T08:05:40.685Z,99012.56
2023-03-29T08:06:50.562Z,99015.25
2023-03-29T08:07:54.468Z,99005.16
2023-03-29T08:09:21.521Z,99013.13
2023-03-29T08:10:26.585Z,99016.56
2023-03-29T08:11:35.383Z,99008.59
2023-03-29T08:12:40.840Z,99000.69
2023-03-29T08:13:44.279Z,99008.59
2023-03-29T08:14:58.968Z,99009.97
2023-03-29T08:16:07.538Z,99005.31
2023-03-29T08:17:14.613Z,99006.59
2023-03-29T08:18:22.949Z,99007.88
2023-03-29T08:19:24.971Z,99010.38
2023-03-29T08:20:46.729Z,99003.78
2023-03-29T08:21:48.605Z,99003.00
2023-03-29T08:22:53.714Z,99003.41
2023-03-29T08:24:06.869Z,98996.03
2023-03-29T08:25:24.786Z,98998.34
2023-03-29T08:26:30.628Z,98991.19
2023-03-29T08:27:35.106Z,98991.06
2023-03-29T08:28:38.136Z,98995.97
2023-03-29T08:29:40.103Z,99002.81
2023-03-29T08:30:43.158Z,98999.50
2023-03-29T08:31:45.223Z,98992.84
2023-03-29T08:32:50.965Z,98990.97
2023-03-29T08:35:52.062Z,98988.47
2023-03-29T08:36:59.904Z,98994.72
2023-03-29T08:38:12.563Z,98988.03
2023-03-29T08:39:16.195Z,98996.47
2023-03-29T08:40:26.309Z,98986.78
2023-03-29T08:41:58.308Z,98991.00
2023-03-29T08:43:23.922Z,98984.53
2023-03-29T08:44:56.285Z,98990.88
2023-03-29T08:46:07.442Z,98990.19
2023-03-29T08:47:18.993Z,98984.00
2023-03-29T08:48:26.290Z,98974.06
2023-03-29T08:49:29.378Z,98981.41
2023-03-29T08:50:38.529Z,98971.53
2023-03-29T08:51:44.506Z,98977.09
2023-03-29T08:52:49.354Z,98971.44
2023-03-29T08:54:29.196Z,98970.88
2023-03-29T08:56:07.708Z,98974.09
2023-03-29T08:57:32.100Z,98973.34
2023-03-29T08:58:43.429Z,98969.38
2023-03-29T08:59:46.745Z,98980.44
2023-03-29T09:00:53.063Z,98972.84
2023-03-29T14:40:26.092Z,98680.22
2023-03-29T14:41:31.632Z,98682.50
2023-03-29T14:42:35.801Z,98678.13
2023-03-29T14:43:39.255Z,98681.75
2023-03-29T14:44:43.335Z,98686.94
2023-03-29T14:45:49.467Z,98673.50
2023-03-29T14:46:51.771Z,98682.69
2023-03-29T14:47:54.930Z,98674.44
2023-03-29T14:48:58.152Z,98670.63
2023-03-29T14:50:01.801Z,98664.84
2023-03-29T14:51:24.345Z,98681.03
2023-03-29T14:52:27.940Z,98668.84
2023-03-29T14:53:32.275Z,98665.59
2023-03-29T14:54:36.137Z,98668.44
2023-03-29T14:55:40.785Z,98657.41
2023-03-29T14:56:58.943Z,98666.25
2023-03-29T14:58:02.693Z,98670.38
2023-03-29T14:59:07.151Z,98659.06
2023-03-29T15:00:25.956Z,98670.63
2023-03-29T15:01:29.046Z,98666.69
2023-03-29T15:02:32.507Z,98664.59
2023-03-29T15:03:44.441Z,98659.88
2023-03-29T15:05:26.275Z,98660.25
2023-03-29T15:06:29.746Z,98660.00
2023-03-29T15:07:33.093Z,98655.13
2023-03-29T15:08:38.124Z,98650.53
2023-03-29T15:09:41.160Z,98650.41
2023-03-29T15:10:45.614Z,98645.72
2023-03-29T15:11:52.683Z,98644.34
2023-03-29T15:12:58.647Z,98638.38
2023-03-29T15:14:17.056Z,98657.03
2023-03-29T15:15:20.731Z,98652.06
2023-03-29T15:16:24.432Z,98657.31
2023-03-29T15:17:43.111Z,98658.00
2023-03-29T15:18:56.162Z,98652.06
2023-03-29T15:20:01.472Z,98644.88
2023-03-29T15:21:06.760Z,98652.88
2023-03-29T15:22:11.328Z,98643.34
2023-03-29T15:23:23.688Z,98646.88
2023-03-29T15:24:33.982Z,98640.38
2023-03-29T15:25:38.946Z,98638.47
2023-03-29T15:26:59.411Z,98629.81
2023-03-29T15:28:02.451Z,98642.13
2023-03-29T15:29:09.268Z,98630.31
2023-03-29T15:30:15.006Z,98630.81
2023-03-29T15:31:20.741Z,98634.25
2023-03-29T15:32:25.701Z,98622.94
2023-03-29T15:33:34.685Z,98631.34
2023-03-29T15:34:38.303Z,98624.44
2023-03-29T15:35:40.766Z,98621.34
2023-03-29T15:36:47.730Z,98619.88
2023-03-29T15:37:51.206Z,98623.84
2023-03-29T15:38:54.691Z,98622.50
2023-03-29T15:39:58.464Z,98612.47
2023-03-29T15:41:02.623Z,98614.88
2023-03-29T15:42:07.876Z,98627.47
2023-03-29T15:43:12.703Z,98620.78
2023-03-29T15:44:28.768Z,98623.97
2023-03-29T15:45:32.074Z,98621.19
2023-03-29T15:46:36.508Z,98625.66
2023-03-29T15:47:38.730Z,98627.13
2023-03-29T15:48:42.022Z,98628.44
2023-03-29T15:49:44.117Z,98618.50
2023-03-29T15:50:47.715Z,98625.91
2023-03-29T15:51:54.027Z,98628.06
2023-03-29T15:53:08.633Z,98621.88
2023-03-29T15:54:15.732Z,98621.75
2023-03-29T15:55:19.297Z,98626.31
2023-03-29T15:56:22.939Z,98628.13
2023-03-29T15:57:26.709Z,98618.56
2023-03-29T15:58:31.557Z,98621.44
2023-03-29T15:59:36.469Z,98624.31
2023-03-29T16:00:40.756Z,98616.09
2023-03-29T16:01:43.958Z,98619.59
2023-03-29T16:02:49.561Z,98632.22
2023-03-29T16:03:59.331Z,98618.75
2023-03-29T16:05:06.382Z,98619.19
2023-03-29T16:06:10.940Z,98619.16
2023-03-29T16:07:15.482Z,98612.84
2023-03-29T16:08:18.513Z,98618.06
2023-03-29T16:09:22.031Z,98616.13
2023-03-29T16:10:25.089Z,98624.34
2023-03-29T16:11:28.409Z,98617.72
2023-03-29T16:12:35.727Z,98619.88
2023-03-29T16:13:41.085Z,98622.16
2023-03-29T16:14:44.285Z,98627.72
2023-03-29T16:15:50.026Z,98628.03
2023-03-29T16:16:52.627Z,98624.91
2023-03-29T16:17:56.482Z,98627.47
2023-03-29T16:18:58.619Z,98628.34
2023-03-29T16:20:01.857Z,98627.47
2023-03-29T16:21:04.754Z,98625.88
2023-03-29T16:22:08.731Z,98624.28
2023-03-29T16:23:11.536Z,98626.66
2023-03-29T16:24:16.275Z,98618.63
2023-03-29T16:25:22.709Z,98618.31
2023-03-29T16:26:26.725Z,98616.06
2023-03-29T16:27:29.857Z,98613.13
2023-03-29T16:28:36.946Z,98612.69
2023-03-29T16:29:42.006Z,98614.13
2023-03-29T16:30:43.996Z,98606.78
2023-03-29T16:31:49.123Z,98616.63
2023-03-29T16:32:51.449Z,98611.34
2023-03-29T16:33:54.724Z,98606.63
2023-03-29T16:34:58.455Z,98609.81
2023-03-29T16:36:01.716Z,98599.06
2023-03-29T16:37:05.012Z,98601.41
2023-03-29T16:38:09.240Z,98604.63
2023-03-29T16:39:12.072Z,98609.59
2023-03-29T16:40:16.319Z,98601.53
2023-03-29T16:41:19.422Z,98598.56
2023-03-29T16:42:22.507Z,98599.16
2023-03-29T16:43:25.706Z,98608.47
2023-03-29T16:44:29.395Z,98611.78
2023-03-29T16:45:34.048Z,98607.97
2023-03-29T16:46:36.388Z,98610.22
2023-03-29T16:47:43.695Z,98610.56
2023-03-29T16:48:46.976Z,98607.81
2023-03-29T16:49:49.347Z,98612.88
2023-03-29T16:50:52.913Z,98609.09
2023-03-29T16:51:56.063Z,98606.13
2023-03-29T16:52:59.109Z,98610.00
2023-03-29T16:54:02.447Z,98606.06
2023-03-29T16:55:10.675Z,98609.00
2023-03-29T16:56:16.573Z,98615.44
2023-03-29T16:57:20.245Z,98612.47
2023-03-29T16:58:24.227Z,98606.66
2023-03-29T16:59:27.295Z,98607.03
2023-03-29T17:00:33.213Z,98611.47
2023-03-29T17:01:38.150Z,98606.63
2023-03-29T17:02:41.348Z,98609.44
2023-03-29T17:03:44.593Z,98611.44
2023-03-29T17:04:46.933Z,98611.75
2023-03-29T17:05:50.731Z,98608.78
2023-03-29T17:06:53.502Z,98612.84
2023-03-29T17:07:56.791Z,98613.59
2023-03-29T17:08:59.181Z,98607.50
2023-03-29T17:10:04.549Z,98619.56
2023-03-29T17:11:08.052Z,98616.16
2023-03-29T17:12:10.593Z,98621.25
2023-03-29T17:13:14.884Z,98630.47
2023-03-29T17:14:17.056Z,98626.84
2023-03-29T17:15:20.127Z,98618.84
2023-03-29T17:16:23.697Z,98619.47
2023-03-29T17:17:27.046Z,98618.59
2023-03-29T17:18:28.976Z,98618.47
2023-03-29T17:19:32.297Z,98618.25
2023-03-29T17:20:34.341Z,98628.38
2023-03-29T17:21:37.277Z,98616.94
2023-03-29T17:22:39.540Z,98609.75
2023-03-29T17:23:42.539Z,98622.56
2023-03-29T17:24:45.519Z,98620.94
2023-03-29T17:25:48.920Z,98616.00
2023-03-29T17:26:51.893Z,98621.09
2023-03-29T17:27:55.998Z,98619.38
2023-03-29T17:28:59.180Z,98622.63
2023-03-29T17:30:01.286Z,98619.94
2023-03-29T17:31:07.083Z,98627.69
2023-03-29T17:32:11.562Z,98623.53
2023-03-29T17:33:13.688Z,98631.72
2023-03-29T17:34:17.281Z,98632.94
2023-03-29T17:35:19.359Z,98637.31
2023-03-29T17:36:24.259Z,98634.19
2023-03-29T17:37:27.668Z,98635.38
2023-03-29T17:38:34.454Z,98634.06
2023-03-29T17:39:37.809Z,98634.50
2023-03-29T17:40:39.969Z,98637.53
2023-03-29T17:41:43.238Z,98636.28
2023-03-29T17:42:46.453Z,98643.56
2023-03-29T17:43:50.994Z,98640.41
2023-03-29T17:44:54.614Z,98635.66
2023-03-29T17:45:58.062Z,98647.41
2023-03-29T17:47:01.206Z,98643.34
2023-03-29T17:48:06.547Z,98648.91
2023-03-29T17:49:12.209Z,98648.31
2023-03-29T17:50:15.346Z,98645.25
2023-03-29T17:51:19.738Z,98647.16
2023-03-29T17:52:22.836Z,98649.84
2023-03-29T17:53:25.302Z,98656.75
2023-03-29T17:54:28.612Z,98647.16
2023-03-29T17:55:31.494Z,98651.34
2023-03-29T17:56:35.267Z,98661.41
2023-03-29T17:57:38.830Z,98654.41
2023-03-29T17:58:41.851Z,98657.66
2023-03-29T17:59:48.005Z,98653.97
2023-03-29T18:00:53.206Z,98655.72
2023-03-29T18:01:55.365Z,98654.06
2023-03-29T18:03:08.884Z,98656.06
2023-03-29T18:04:14.405Z,98652.91
2023-03-29T18:05:17.964Z,98651.50
2023-03-29T18:06:21.084Z,98651.00
2023-03-29T18:07:24.373Z,98651.25
2023-03-29T18:08:36.864Z,98662.72
2023-03-29T18:09:43.621Z,98657.31
2023-03-29T18:10:48.228Z,98656.94
2023-03-29T18:11:51.500Z,98657.50
2023-03-29T18:12:54.170Z,98660.56
2023-03-29T18:14:00.018Z,98660.88
2023-03-29T18:15:02.300Z,98660.09
2023-03-29T18:16:07.422Z,98660.28
2023-03-29T18:17:10.015Z,98660.41
2023-03-29T18:18:15.381Z,98659.59
2023-03-29T18:19:18.901Z,98652.78
2023-03-29T18:20:24.359Z,98674.44
2023-03-29T18:21:29.303Z,98671.25
2023-03-29T18:22:34.257Z,98667.25
2023-03-29T18:23:39.855Z,98675.28
2023-03-29T18:24:43.252Z,98671.19
2023-03-29T18:25:45.831Z,98676.66
2023-03-29T18:26:50.273Z,98670.00
2023-03-29T18:27:53.155Z,98681.34
2023-03-29T18:28:56.507Z,98673.00
2023-03-29T18:30:02.277Z,98669.78
2023-03-29T18:31:05.973Z,98675.81
2023-03-29T18:32:09.375Z,98673.41
2023-03-29T18:33:15.022Z,98676.03
2023-03-29T18:34:17.587Z,98680.28
2023-03-29T18:35:20.645Z,98685.56
2023-03-29T18:36:25.266Z,98678.91
2023-03-29T18:37:28.318Z,98677.41
2023-03-29T18:38:32.734Z,98679.38
2023-03-29T18:39:35.959Z,98669.28
2023-03-29T18:40:39.121Z,98675.56
2023-03-29T18:41:42.162Z,98672.38
2023-03-29T18:42:46.120Z,98667.34
2023-03-29T18:43:48.440Z,98661.59
2023-03-29T18:44:51.888Z,98662.72
2023-03-29T18:45:57.438Z,98657.91